sensor_id;sensor_type;location;lat;lon;timestamp;P1;durP1;ratioP1;P2;durP2;ratioP2
22567;SDS011;11450;50.818;4.382;2022-11-15T00:01:15;24.00;;;17.73;;
22567;SDS011;11450;50.818;4.382;2022-11-15T00:03:42;22.42;;;17.58;;
22567;SDS011;11450;50.818;4.382;2022-11-15T00:06:08;20.23;;;17.10;;
22567;SDS011;11450;50.818;4.382;2022-11-15T00:08:34;22.55;;;18.23;;
22567;SDS011;11450;50.818;4.382;2022-11-15T00:11:00;20.02;;;17.30;;
22567;SDS011;11450;50.818;4.382;2022-11-15T00:13:27;21.30;;;16.90;;
22567;SDS011;11450;50.818;4.382;2022-11-15T00:15:56;21.38;;;17.08;;
22567;SDS011;11450;50.818;4.382;2022-11-15T00:18:23;21.70;;;16.55;;
22567;SDS011;11450;50.818;4.382;2022-11-15T00:20:49;21.83;;;17.42;;
22567;SDS011;11450;50.818;4.382;2022-11-15T00:23:14;22.52;;;18.60;;
22567;SDS011;11450;50.818;4.382;2022-11-15T00:25:40;20.75;;;18.55;;
22567;SDS011;11450;50.818;4.382;2022-11-15T00:28:05;23.30;;;18.83;;
22567;SDS011;11450;50.818;4.382;2022-11-15T00:30:31;25.98;;;19.73;;
22567;SDS011;11450;50.818;4.382;2022-11-15T00:33:01;23.15;;;20.13;;
22567;SDS011;11450;50.818;4.382;2022-11-15T00:35:33;21.38;;;18.40;;
22567;SDS011;11450;50.818;4.382;2022-11-15T00:38:00;24.33;;;19.77;;
22567;SDS011;11450;50.818;4.382;2022-11-15T00:40:26;24.63;;;20.63;;
22567;SDS011;11450;50.818;4.382;2022-11-15T00:42:52;23.85;;;18.92;;
22567;SDS011;11450;50.818;4.382;2022-11-15T00:45:18;27.27;;;19.88;;
22567;SDS011;11450;50.818;4.382;2022-11-15T00:47:44;25.27;;;18.75;;
22567;SDS011;11450;50.818;4.382;2022-11-15T00:50:10;27.13;;;19.70;;
22567;SDS011;11450;50.818;4.382;2022-11-15T00:52:36;23.15;;;19.15;;
22567;SDS011;11450;50.818;4.382;2022-11-15T00:55:02;28.80;;;20.45;;
22567;SDS011;11450;50.818;4.382;2022-11-15T00:57:28;32.33;;;21.80;;
22567;SDS011;11450;50.818;4.382;2022-11-15T00:59:53;28.67;;;22.77;;
22567;SDS011;11450;50.818;4.382;2022-11-15T01:02:19;26.08;;;21.38;;
22567;SDS011;11450;50.818;4.382;2022-11-15T01:04:45;28.15;;;21.92;;
22567;SDS011;11450;50.818;4.382;2022-11-15T01:07:10;25.25;;;21.95;;
22567;SDS011;11450;50.818;4.382;2022-11-15T01:09:36;28.88;;;21.20;;
22567;SDS011;11450;50.818;4.382;2022-11-15T01:12:02;30.60;;;22.42;;
22567;SDS011;11450;50.818;4.382;2022-11-15T01:14:28;28.13;;;22.42;;
22567;SDS011;11450;50.818;4.382;2022-11-15T01:16:55;28.38;;;21.80;;
22567;SDS011;11450;50.818;4.382;2022-11-15T01:19:22;31.35;;;22.85;;
22567;SDS011;11450;50.818;4.382;2022-11-15T01:21:48;27.08;;;20.95;;
22567;SDS011;11450;50.818;4.382;2022-11-15T01:24:15;31.75;;;22.63;;
22567;SDS011;11450;50.818;4.382;2022-11-15T01:26:40;27.52;;;21.13;;
22567;SDS011;11450;50.818;4.382;2022-11-15T01:29:06;27.17;;;20.02;;
22567;SDS011;11450;50.818;4.382;2022-11-15T01:31:32;26.95;;;20.58;;
22567;SDS011;11450;50.818;4.382;2022-11-15T01:33:57;22.33;;;19.17;;
22567;SDS011;11450;50.818;4.382;2022-11-15T01:36:23;21.48;;;18.20;;
22567;SDS011;11450;50.818;4.382;2022-11-15T01:38:58;28.27;;;19.63;;
22567;SDS011;11450;50.818;4.382;2022-11-15T01:41:25;25.45;;;18.02;;
22567;SDS011;11450;50.818;4.382;2022-11-15T01:43:53;20.27;;;17.33;;
22567;SDS011;11450;50.818;4.382;2022-11-15T01:46:54;21.13;;;16.83;;
22567;SDS011;11450;50.818;4.382;2022-11-15T01:49:15;21.30;;;17.38;;
22567;SDS011;11450;50.818;4.382;2022-11-15T01:51:44;21.40;;;15.73;;
22567;SDS011;11450;50.818;4.382;2022-11-15T01:54:12;20.42;;;15.45;;
22567;SDS011;11450;50.818;4.382;2022-11-15T01:56:43;20.20;;;15.32;;
22567;SDS011;11450;50.818;4.382;2022-11-15T01:59:14;20.40;;;15.02;;
22567;SDS011;11450;50.818;4.382;2022-11-15T02:01:40;16.63;;;14.70;;
22567;SDS011;11450;50.818;4.382;2022-11-15T02:04:26;16.88;;;14.18;;
22567;SDS011;11450;50.818;4.382;2022-11-15T02:07:04;17.33;;;13.18;;
22567;SDS011;11450;50.818;4.382;2022-11-15T02:09:31;17.30;;;14.05;;
22567;SDS011;11450;50.818;4.382;2022-11-15T02:11:57;19.35;;;14.18;;
22567;SDS011;11450;50.818;4.382;2022-11-15T02:14:25;16.58;;;14.18;;
22567;SDS011;11450;50.818;4.382;2022-11-15T02:40:59;16.27;;;13.43;;
22567;SDS011;11450;50.818;4.382;2022-11-15T02:43:44;15.68;;;12.70;;
22567;SDS011;11450;50.818;4.382;2022-11-15T02:46:28;19.02;;;13.25;;
22567;SDS011;11450;50.818;4.382;2022-11-15T02:49:19;16.15;;;13.85;;
22567;SDS011;11450;50.818;4.382;2022-11-15T02:51:46;19.75;;;12.73;;
22567;SDS011;11450;50.818;4.382;2022-11-15T02:54:14;15.20;;;12.18;;
22567;SDS011;11450;50.818;4.382;2022-11-15T02:56:44;15.30;;;11.07;;
22567;SDS011;11450;50.818;4.382;2022-11-15T03:04:57;14.18;;;10.95;;
22567;SDS011;11450;50.818;4.382;2022-11-15T03:10:06;13.25;;;10.98;;
22567;SDS011;11450;50.818;4.382;2022-11-15T03:12:49;13.27;;;10.02;;
22567;SDS011;11450;50.818;4.382;2022-11-15T03:15:31;15.95;;;10.02;;
22567;SDS011;11450;50.818;4.382;2022-11-15T03:20:44;14.55;;;9.73;;
22567;SDS011;11450;50.818;4.382;2022-11-15T03:23:10;14.38;;;9.93;;
22567;SDS011;11450;50.818;4.382;2022-11-15T03:25:41;12.48;;;9.00;;
22567;SDS011;11450;50.818;4.382;2022-11-15T03:28:12;12.32;;;8.50;;
22567;SDS011;11450;50.818;4.382;2022-11-15T03:30:41;10.18;;;8.68;;
22567;SDS011;11450;50.818;4.382;2022-11-15T03:33:11;11.77;;;8.32;;
22567;SDS011;11450;50.818;4.382;2022-11-15T03:35:37;11.75;;;8.23;;
22567;SDS011;11450;50.818;4.382;2022-11-15T03:41:10;12.35;;;7.18;;
22567;SDS011;11450;50.818;4.382;2022-11-15T03:44:41;10.98;;;6.47;;
22567;SDS011;11450;50.818;4.382;2022-11-15T03:46:36;11.57;;;6.50;;
22567;SDS011;11450;50.818;4.382;2022-11-15T03:49:12;10.23;;;6.47;;
22567;SDS011;11450;50.818;4.382;2022-11-15T03:51:42;9.13;;;6.72;;
22567;SDS011;11450;50.818;4.382;2022-11-15T03:54:08;11.63;;;7.07;;
22567;SDS011;11450;50.818;4.382;2022-11-15T03:56:34;9.93;;;6.43;;
22567;SDS011;11450;50.818;4.382;2022-11-15T03:58:59;8.40;;;5.75;;
22567;SDS011;11450;50.818;4.382;2022-11-15T04:01:25;11.35;;;6.40;;
22567;SDS011;11450;50.818;4.382;2022-11-15T04:03:51;9.13;;;5.95;;
22567;SDS011;11450;50.818;4.382;2022-11-15T04:06:16;9.57;;;5.85;;
22567;SDS011;11450;50.818;4.382;2022-11-15T04:08:42;8.98;;;6.05;;
22567;SDS011;11450;50.818;4.382;2022-11-15T04:11:07;12.00;;;6.30;;
22567;SDS011;11450;50.818;4.382;2022-11-15T04:13:33;9.32;;;5.93;;
22567;SDS011;11450;50.818;4.382;2022-11-15T04:15:59;9.75;;;6.07;;
22567;SDS011;11450;50.818;4.382;2022-11-15T04:18:24;8.43;;;6.10;;
22567;SDS011;11450;50.818;4.382;2022-11-15T04:20:50;7.95;;;5.95;;
22567;SDS011;11450;50.818;4.382;2022-11-15T04:23:34;10.23;;;6.55;;
22567;SDS011;11450;50.818;4.382;2022-11-15T04:26:31;8.88;;;6.88;;
22567;SDS011;11450;50.818;4.382;2022-11-15T04:28:57;11.18;;;5.93;;
22567;SDS011;11450;50.818;4.382;2022-11-15T04:31:41;8.98;;;6.35;;
22567;SDS011;11450;50.818;4.382;2022-11-15T04:34:09;10.32;;;5.93;;
22567;SDS011;11450;50.818;4.382;2022-11-15T04:36:34;8.40;;;5.90;;
22567;SDS011;11450;50.818;4.382;2022-11-15T04:39:18;11.30;;;6.00;;
22567;SDS011;11450;50.818;4.382;2022-11-15T04:41:44;9.07;;;6.35;;
22567;SDS011;11450;50.818;4.382;2022-11-15T04:44:10;9.60;;;6.07;;
22567;SDS011;11450;50.818;4.382;2022-11-15T04:46:35;8.93;;;5.78;;
22567;SDS011;11450;50.818;4.382;2022-11-15T04:49:01;12.80;;;6.70;;
22567;SDS011;11450;50.818;4.382;2022-11-15T04:51:27;9.70;;;6.28;;
22567;SDS011;11450;50.818;4.382;2022-11-15T04:53:52;8.55;;;5.82;;
22567;SDS011;11450;50.818;4.382;2022-11-15T04:56:18;10.77;;;5.88;;
22567;SDS011;11450;50.818;4.382;2022-11-15T04:58:44;10.57;;;5.00;;
22567;SDS011;11450;50.818;4.382;2022-11-15T05:01:10;9.90;;;5.25;;
22567;SDS011;11450;50.818;4.382;2022-11-15T05:03:37;8.35;;;4.97;;
22567;SDS011;11450;50.818;4.382;2022-11-15T05:06:21;9.35;;;5.43;;
22567;SDS011;11450;50.818;4.382;2022-11-15T05:08:47;13.30;;;5.00;;
22567;SDS011;11450;50.818;4.382;2022-11-15T05:11:13;13.85;;;6.05;;
22567;SDS011;11450;50.818;4.382;2022-11-15T05:13:38;8.85;;;5.05;;
22567;SDS011;11450;50.818;4.382;2022-11-15T05:16:04;5.82;;;4.55;;
22567;SDS011;11450;50.818;4.382;2022-11-15T05:18:30;8.95;;;4.50;;
22567;SDS011;11450;50.818;4.382;2022-11-15T05:20:55;7.53;;;4.20;;
22567;SDS011;11450;50.818;4.382;2022-11-15T05:23:21;9.50;;;4.45;;
22567;SDS011;11450;50.818;4.382;2022-11-15T05:25:47;8.55;;;4.28;;
22567;SDS011;11450;50.818;4.382;2022-11-15T05:28:12;8.05;;;4.15;;
22567;SDS011;11450;50.818;4.382;2022-11-15T05:30:38;7.60;;;3.97;;
22567;SDS011;11450;50.818;4.382;2022-11-15T05:33:03;8.45;;;3.92;;
22567;SDS011;11450;50.818;4.382;2022-11-15T05:38:20;8.63;;;4.45;;
22567;SDS011;11450;50.818;4.382;2022-11-15T05:40:46;5.97;;;3.70;;
22567;SDS011;11450;50.818;4.382;2022-11-15T05:43:12;9.02;;;3.65;;
22567;SDS011;11450;50.818;4.382;2022-11-15T05:45:38;6.32;;;3.50;;
22567;SDS011;11450;50.818;4.382;2022-11-15T05:48:04;8.48;;;3.80;;
22567;SDS011;11450;50.818;4.382;2022-11-15T05:50:33;12.43;;;4.00;;
22567;SDS011;11450;50.818;4.382;2022-11-15T05:53:00;11.18;;;4.20;;
22567;SDS011;11450;50.818;4.382;2022-11-15T05:55:27;8.10;;;3.38;;
22567;SDS011;11450;50.818;4.382;2022-11-15T05:57:52;7.57;;;3.88;;
22567;SDS011;11450;50.818;4.382;2022-11-15T06:00:18;7.82;;;4.10;;
22567;SDS011;11450;50.818;4.382;2022-11-15T06:02:44;8.10;;;3.85;;
22567;SDS011;11450;50.818;4.382;2022-11-15T06:05:11;6.63;;;4.35;;
22567;SDS011;11450;50.818;4.382;2022-11-15T06:07:41;5.53;;;3.85;;
22567;SDS011;11450;50.818;4.382;2022-11-15T06:10:07;7.50;;;3.63;;
22567;SDS011;11450;50.818;4.382;2022-11-15T06:12:33;7.75;;;4.07;;
22567;SDS011;11450;50.818;4.382;2022-11-15T06:14:58;4.53;;;3.30;;
22567;SDS011;11450;50.818;4.382;2022-11-15T06:17:24;7.07;;;3.38;;
22567;SDS011;11450;50.818;4.382;2022-11-15T06:19:49;9.57;;;3.70;;
22567;SDS011;11450;50.818;4.382;2022-11-15T06:22:15;13.68;;;4.07;;
22567;SDS011;11450;50.818;4.382;2022-11-15T06:24:42;6.25;;;3.22;;
22567;SDS011;11450;50.818;4.382;2022-11-15T06:27:10;6.88;;;3.20;;
22567;SDS011;11450;50.818;4.382;2022-11-15T06:29:36;7.88;;;3.80;;
22567;SDS011;11450;50.818;4.382;2022-11-15T06:32:02;5.60;;;3.25;;
22567;SDS011;11450;50.818;4.382;2022-11-15T06:34:28;8.82;;;4.28;;
22567;SDS011;11450;50.818;4.382;2022-11-15T06:36:53;7.47;;;3.70;;
22567;SDS011;11450;50.818;4.382;2022-11-15T06:39:19;9.65;;;3.63;;
22567;SDS011;11450;50.818;4.382;2022-11-15T06:41:45;11.02;;;3.95;;
22567;SDS011;11450;50.818;4.382;2022-11-15T06:44:10;7.00;;;3.92;;
22567;SDS011;11450;50.818;4.382;2022-11-15T06:46:36;7.47;;;4.15;;
22567;SDS011;11450;50.818;4.382;2022-11-15T06:49:11;7.65;;;3.70;;
22567;SDS011;11450;50.818;4.382;2022-11-15T06:51:37;5.35;;;3.88;;
22567;SDS011;11450;50.818;4.382;2022-11-15T06:54:02;8.48;;;3.65;;
22567;SDS011;11450;50.818;4.382;2022-11-15T06:56:28;6.00;;;3.65;;
22567;SDS011;11450;50.818;4.382;2022-11-15T06:58:54;7.60;;;4.00;;
22567;SDS011;11450;50.818;4.382;2022-11-15T07:01:20;8.52;;;3.63;;
22567;SDS011;11450;50.818;4.382;2022-11-15T07:03:55;13.95;;;9.45;;
22567;SDS011;11450;50.818;4.382;2022-11-15T07:06:20;6.43;;;4.22;;
22567;SDS011;11450;50.818;4.382;2022-11-15T07:08:46;5.80;;;3.50;;
22567;SDS011;11450;50.818;4.382;2022-11-15T07:11:12;14.18;;;4.10;;
22567;SDS011;11450;50.818;4.382;2022-11-15T07:13:37;5.75;;;3.53;;
22567;SDS011;11450;50.818;4.382;2022-11-15T07:16:06;9.13;;;4.45;;
22567;SDS011;11450;50.818;4.382;2022-11-15T07:18:34;7.78;;;3.72;;
22567;SDS011;11450;50.818;4.382;2022-11-15T07:21:03;5.55;;;4.03;;
22567;SDS011;11450;50.818;4.382;2022-11-15T07:23:30;7.05;;;4.68;;
22567;SDS011;11450;50.818;4.382;2022-11-15T07:25:57;10.38;;;3.85;;
22567;SDS011;11450;50.818;4.382;2022-11-15T07:28:23;6.63;;;3.70;;
22567;SDS011;11450;50.818;4.382;2022-11-15T07:30:50;4.00;;;3.55;;
22567;SDS011;11450;50.818;4.382;2022-11-15T07:33:15;5.43;;;3.83;;
22567;SDS011;11450;50.818;4.382;2022-11-15T07:35:41;5.22;;;4.10;;
22567;SDS011;11450;50.818;4.382;2022-11-15T07:38:07;127.63;;;91.97;;
22567;SDS011;11450;50.818;4.382;2022-11-15T07:40:33;7.18;;;4.78;;
22567;SDS011;11450;50.818;4.382;2022-11-15T07:43:03;7.72;;;4.07;;
22567;SDS011;11450;50.818;4.382;2022-11-15T07:45:30;6.38;;;3.45;;
22567;SDS011;11450;50.818;4.382;2022-11-15T07:47:58;5.85;;;3.42;;
22567;SDS011;11450;50.818;4.382;2022-11-15T07:50:24;6.95;;;3.47;;
22567;SDS011;11450;50.818;4.382;2022-11-15T07:52:54;9.38;;;3.22;;
22567;SDS011;11450;50.818;4.382;2022-11-15T07:55:22;7.22;;;3.33;;
22567;SDS011;11450;50.818;4.382;2022-11-15T07:57:48;10.27;;;3.47;;
22567;SDS011;11450;50.818;4.382;2022-11-15T08:00:14;8.88;;;3.65;;
22567;SDS011;11450;50.818;4.382;2022-11-15T08:02:40;8.57;;;3.53;;
22567;SDS011;11450;50.818;4.382;2022-11-15T08:05:06;7.47;;;3.30;;
22567;SDS011;11450;50.818;4.382;2022-11-15T08:07:32;8.90;;;3.60;;
22567;SDS011;11450;50.818;4.382;2022-11-15T08:09:58;5.03;;;3.60;;
22567;SDS011;11450;50.818;4.382;2022-11-15T08:12:26;9.57;;;3.83;;
22567;SDS011;11450;50.818;4.382;2022-11-15T08:14:53;5.90;;;4.03;;
22567;SDS011;11450;50.818;4.382;2022-11-15T08:17:20;7.25;;;3.88;;
22567;SDS011;11450;50.818;4.382;2022-11-15T08:19:46;6.90;;;3.45;;
22567;SDS011;11450;50.818;4.382;2022-11-15T08:22:12;5.35;;;2.60;;
22567;SDS011;11450;50.818;4.382;2022-11-15T08:24:39;4.25;;;2.67;;
22567;SDS011;11450;50.818;4.382;2022-11-15T08:27:04;5.68;;;2.90;;
22567;SDS011;11450;50.818;4.382;2022-11-15T08:29:44;6.68;;;2.80;;
22567;SDS011;11450;50.818;4.382;2022-11-15T08:32:10;2.95;;;2.00;;
22567;SDS011;11450;50.818;4.382;2022-11-15T08:34:36;5.55;;;2.10;;
22567;SDS011;11450;50.818;4.382;2022-11-15T08:37:04;4.30;;;2.35;;
22567;SDS011;11450;50.818;4.382;2022-11-15T08:39:30;7.75;;;1.95;;
22567;SDS011;11450;50.818;4.382;2022-11-15T08:41:56;8.38;;;2.42;;
22567;SDS011;11450;50.818;4.382;2022-11-15T08:44:22;6.18;;;2.03;;
22567;SDS011;11450;50.818;4.382;2022-11-15T08:46:49;8.57;;;2.63;;
22567;SDS011;11450;50.818;4.382;2022-11-15T08:49:15;7.10;;;2.33;;
22567;SDS011;11450;50.818;4.382;2022-11-15T08:51:41;6.03;;;2.38;;
22567;SDS011;11450;50.818;4.382;2022-11-15T08:54:07;5.70;;;2.30;;
22567;SDS011;11450;50.818;4.382;2022-11-15T08:56:32;6.40;;;1.85;;
22567;SDS011;11450;50.818;4.382;2022-11-15T08:58:58;6.88;;;3.05;;
22567;SDS011;11450;50.818;4.382;2022-11-15T09:01:24;6.07;;;2.20;;
22567;SDS011;11450;50.818;4.382;2022-11-15T09:03:49;10.48;;;2.47;;
22567;SDS011;11450;50.818;4.382;2022-11-15T09:06:16;7.65;;;2.15;;
22567;SDS011;11450;50.818;4.382;2022-11-15T09:08:41;5.88;;;2.05;;
22567;SDS011;11450;50.818;4.382;2022-11-15T09:11:08;7.65;;;2.30;;
22567;SDS011;11450;50.818;4.382;2022-11-15T09:13:34;8.23;;;2.63;;
22567;SDS011;11450;50.818;4.382;2022-11-15T09:16:02;7.63;;;2.72;;
22567;SDS011;11450;50.818;4.382;2022-11-15T09:18:29;7.00;;;1.80;;
22567;SDS011;11450;50.818;4.382;2022-11-15T09:20:55;7.70;;;1.98;;
22567;SDS011;11450;50.818;4.382;2022-11-15T09:23:22;9.13;;;2.20;;
22567;SDS011;11450;50.818;4.382;2022-11-15T09:25:48;6.13;;;1.90;;
22567;SDS011;11450;50.818;4.382;2022-11-15T09:28:13;4.18;;;1.88;;
22567;SDS011;11450;50.818;4.382;2022-11-15T09:30:39;6.82;;;2.05;;
22567;SDS011;11450;50.818;4.382;2022-11-15T09:33:08;8.57;;;1.90;;
22567;SDS011;11450;50.818;4.382;2022-11-15T09:35:34;9.10;;;2.00;;
22567;SDS011;11450;50.818;4.382;2022-11-15T09:38:00;10.77;;;2.50;;
22567;SDS011;11450;50.818;4.382;2022-11-15T09:40:26;7.93;;;1.92;;
22567;SDS011;11450;50.818;4.382;2022-11-15T09:45:40;9.38;;;1.75;;
22567;SDS011;11450;50.818;4.382;2022-11-15T09:48:37;5.60;;;1.67;;
22567;SDS011;11450;50.818;4.382;2022-11-15T09:51:08;7.20;;;1.48;;
22567;SDS011;11450;50.818;4.382;2022-11-15T09:53:58;5.30;;;1.83;;
22567;SDS011;11450;50.818;4.382;2022-11-15T09:56:39;15.85;;;2.20;;
22567;SDS011;11450;50.818;4.382;2022-11-15T10:02:17;6.70;;;1.85;;
22567;SDS011;11450;50.818;4.382;2022-11-15T10:05:00;6.80;;;2.22;;
22567;SDS011;11450;50.818;4.382;2022-11-15T10:07:39;6.90;;;1.50;;
22567;SDS011;11450;50.818;4.382;2022-11-15T10:10:13;8.38;;;1.67;;
22567;SDS011;11450;50.818;4.382;2022-11-15T10:13:22;6.45;;;1.35;;
22567;SDS011;11450;50.818;4.382;2022-11-15T10:15:49;5.53;;;1.55;;
22567;SDS011;11450;50.818;4.382;2022-11-15T10:18:17;6.38;;;1.58;;
22567;SDS011;11450;50.818;4.382;2022-11-15T10:21:19;4.45;;;1.77;;
22567;SDS011;11450;50.818;4.382;2022-11-15T10:23:57;5.55;;;1.50;;
22567;SDS011;11450;50.818;4.382;2022-11-15T10:26:23;11.65;;;1.67;;
22567;SDS011;11450;50.818;4.382;2022-11-15T10:28:49;6.97;;;1.67;;
22567;SDS011;11450;50.818;4.382;2022-11-15T10:31:25;5.40;;;1.65;;
22567;SDS011;11450;50.818;4.382;2022-11-15T10:34:26;5.28;;;1.08;;
22567;SDS011;11450;50.818;4.382;2022-11-15T10:36:46;4.55;;;1.65;;
22567;SDS011;11450;50.818;4.382;2022-11-15T10:39:26;5.10;;;1.70;;
22567;SDS011;11450;50.818;4.382;2022-11-15T10:41:55;4.47;;;1.77;;
22567;SDS011;11450;50.818;4.382;2022-11-15T10:44:23;5.97;;;1.70;;
22567;SDS011;11450;50.818;4.382;2022-11-15T10:54:48;4.38;;;1.27;;
22567;SDS011;11450;50.818;4.382;2022-11-15T10:57:19;3.85;;;1.35;;
22567;SDS011;11450;50.818;4.382;2022-11-15T10:59:51;5.47;;;1.60;;
22567;SDS011;11450;50.818;4.382;2022-11-15T11:05:49;8.63;;;2.20;;
22567;SDS011;11450;50.818;4.382;2022-11-15T11:10:39;6.00;;;1.45;;
22567;SDS011;11450;50.818;4.382;2022-11-15T11:13:24;6.80;;;1.77;;
22567;SDS011;11450;50.818;4.382;2022-11-15T11:16:16;7.38;;;1.38;;
22567;SDS011;11450;50.818;4.382;2022-11-15T11:41:20;8.35;;;1.27;;
22567;SDS011;11450;50.818;4.382;2022-11-15T11:46:34;4.00;;;1.40;;
22567;SDS011;11450;50.818;4.382;2022-11-15T11:52:17;4.75;;;1.35;;
22567;SDS011;11450;50.818;4.382;2022-11-15T11:54:59;5.28;;;1.30;;
22567;SDS011;11450;50.818;4.382;2022-11-15T11:57:50;10.70;;;1.90;;
22567;SDS011;11450;50.818;4.382;2022-11-15T12:00:39;4.75;;;1.05;;
22567;SDS011;11450;50.818;4.382;2022-11-15T12:05:54;5.65;;;1.05;;
22567;SDS011;11450;50.818;4.382;2022-11-15T12:08:49;7.27;;;1.40;;
22567;SDS011;11450;50.818;4.382;2022-11-15T12:17:10;6.93;;;1.50;;
22567;SDS011;11450;50.818;4.382;2022-11-15T12:19:36;6.65;;;1.85;;
22567;SDS011;11450;50.818;4.382;2022-11-15T12:25:18;6.95;;;1.13;;
22567;SDS011;11450;50.818;4.382;2022-11-15T12:28:11;3.53;;;1.25;;
22567;SDS011;11450;50.818;4.382;2022-11-15T12:30:50;7.93;;;1.58;;
22567;SDS011;11450;50.818;4.382;2022-11-15T12:33:40;3.45;;;1.20;;
22567;SDS011;11450;50.818;4.382;2022-11-15T12:41:26;5.78;;;1.30;;
22567;SDS011;11450;50.818;4.382;2022-11-15T12:43:53;6.20;;;1.25;;
22567;SDS011;11450;50.818;4.382;2022-11-15T12:51:20;6.68;;;1.73;;
22567;SDS011;11450;50.818;4.382;2022-11-15T13:02:24;2.08;;;1.20;;
22567;SDS011;11450;50.818;4.382;2022-11-15T13:04:52;4.45;;;1.38;;
22567;SDS011;11450;50.818;4.382;2022-11-15T13:10:01;7.35;;;1.30;;
22567;SDS011;11450;50.818;4.382;2022-11-15T13:15:37;2.80;;;1.10;;
22567;SDS011;11450;50.818;4.382;2022-11-15T13:21:18;2.38;;;0.90;;
22567;SDS011;11450;50.818;4.382;2022-11-15T13:24:12;6.70;;;1.90;;
22567;SDS011;11450;50.818;4.382;2022-11-15T13:26:39;5.40;;;1.35;;
22567;SDS011;11450;50.818;4.382;2022-11-15T13:29:12;13.40;;;2.63;;
22567;SDS011;11450;50.818;4.382;2022-11-15T13:31:42;5.05;;;1.00;;
22567;SDS011;11450;50.818;4.382;2022-11-15T13:34:28;4.70;;;1.25;;
22567;SDS011;11450;50.818;4.382;2022-11-15T13:36:58;1.77;;;0.98;;
22567;SDS011;11450;50.818;4.382;2022-11-15T13:39:30;2.92;;;1.10;;
22567;SDS011;11450;50.818;4.382;2022-11-15T13:41:57;4.85;;;1.10;;
22567;SDS011;11450;50.818;4.382;2022-11-15T13:44:25;4.05;;;1.20;;
22567;SDS011;11450;50.818;4.382;2022-11-15T13:49:38;4.30;;;1.20;;
22567;SDS011;11450;50.818;4.382;2022-11-15T13:52:05;2.72;;;0.90;;
22567;SDS011;11450;50.818;4.382;2022-11-15T13:54:42;4.88;;;2.33;;
22567;SDS011;11450;50.818;4.382;2022-11-15T13:57:35;6.05;;;2.33;;
22567;SDS011;11450;50.818;4.382;2022-11-15T14:05:46;4.07;;;1.27;;
22567;SDS011;11450;50.818;4.382;2022-11-15T14:08:31;6.70;;;1.55;;
22567;SDS011;11450;50.818;4.382;2022-11-15T14:11:12;6.47;;;2.45;;
22567;SDS011;11450;50.818;4.382;2022-11-15T14:13:58;3.53;;;1.20;;
22567;SDS011;11450;50.818;4.382;2022-11-15T14:16:38;5.20;;;1.40;;
22567;SDS011;11450;50.818;4.382;2022-11-15T14:19:05;3.67;;;2.08;;
22567;SDS011;11450;50.818;4.382;2022-11-15T14:21:34;5.93;;;1.48;;
22567;SDS011;11450;50.818;4.382;2022-11-15T14:26:42;5.32;;;1.52;;
22567;SDS011;11450;50.818;4.382;2022-11-15T14:32:14;2.20;;;1.17;;
22567;SDS011;11450;50.818;4.382;2022-11-15T14:34:40;2.40;;;1.20;;
22567;SDS011;11450;50.818;4.382;2022-11-15T14:37:28;3.65;;;1.42;;
22567;SDS011;11450;50.818;4.382;2022-11-15T14:39:59;3.03;;;1.33;;
22567;SDS011;11450;50.818;4.382;2022-11-15T14:42:25;4.00;;;1.42;;
22567;SDS011;11450;50.818;4.382;2022-11-15T14:44:51;2.55;;;1.33;;
22567;SDS011;11450;50.818;4.382;2022-11-15T14:47:17;4.30;;;1.30;;
22567;SDS011;11450;50.818;4.382;2022-11-15T14:49:43;2.35;;;1.20;;
22567;SDS011;11450;50.818;4.382;2022-11-15T14:52:29;2.13;;;1.20;;
22567;SDS011;11450;50.818;4.382;2022-11-15T14:55:01;2.10;;;1.20;;
22567;SDS011;11450;50.818;4.382;2022-11-15T14:57:29;3.50;;;1.60;;
22567;SDS011;11450;50.818;4.382;2022-11-15T14:59:55;3.47;;;1.20;;
22567;SDS011;11450;50.818;4.382;2022-11-15T15:02:22;2.38;;;1.42;;
22567;SDS011;11450;50.818;4.382;2022-11-15T15:04:49;4.55;;;1.27;;
22567;SDS011;11450;50.818;4.382;2022-11-15T15:07:31;4.63;;;1.83;;
22567;SDS011;11450;50.818;4.382;2022-11-15T15:09:56;3.65;;;1.75;;
22567;SDS011;11450;50.818;4.382;2022-11-15T15:12:22;3.55;;;1.90;;
22567;SDS011;11450;50.818;4.382;2022-11-15T15:14:49;2.45;;;1.48;;
22567;SDS011;11450;50.818;4.382;2022-11-15T15:17:15;2.53;;;1.75;;
22567;SDS011;11450;50.818;4.382;2022-11-15T15:19:42;2.25;;;1.38;;
22567;SDS011;11450;50.818;4.382;2022-11-15T15:22:15;2.30;;;1.65;;
22567;SDS011;11450;50.818;4.382;2022-11-15T15:24:43;6.35;;;1.98;;
22567;SDS011;11450;50.818;4.382;2022-11-15T15:27:10;3.90;;;2.20;;
22567;SDS011;11450;50.818;4.382;2022-11-15T15:29:36;2.65;;;1.63;;
22567;SDS011;11450;50.818;4.382;2022-11-15T15:32:02;4.00;;;1.70;;
22567;SDS011;11450;50.818;4.382;2022-11-15T15:34:28;2.38;;;1.80;;
22567;SDS011;11450;50.818;4.382;2022-11-15T15:39:52;2.23;;;1.73;;
22567;SDS011;11450;50.818;4.382;2022-11-15T15:42:19;4.53;;;2.70;;
22567;SDS011;11450;50.818;4.382;2022-11-15T15:44:46;3.28;;;1.70;;
22567;SDS011;11450;50.818;4.382;2022-11-15T15:47:13;4.07;;;1.85;;
22567;SDS011;11450;50.818;4.382;2022-11-15T15:49:44;2.58;;;2.15;;
22567;SDS011;11450;50.818;4.382;2022-11-15T15:52:09;3.08;;;1.80;;
22567;SDS011;11450;50.818;4.382;2022-11-15T15:54:36;2.90;;;1.75;;
22567;SDS011;11450;50.818;4.382;2022-11-15T15:57:02;4.68;;;1.92;;
22567;SDS011;11450;50.818;4.382;2022-11-15T15:59:28;2.85;;;2.30;;
22567;SDS011;11450;50.818;4.382;2022-11-15T16:01:54;2.92;;;1.77;;
22567;SDS011;11450;50.818;4.382;2022-11-15T16:04:19;4.00;;;1.92;;
22567;SDS011;11450;50.818;4.382;2022-11-15T16:06:45;4.53;;;2.22;;
22567;SDS011;11450;50.818;4.382;2022-11-15T16:09:14;2.97;;;2.13;;
22567;SDS011;11450;50.818;4.382;2022-11-15T16:11:41;2.78;;;2.15;;
22567;SDS011;11450;50.818;4.382;2022-11-15T16:14:08;3.17;;;2.15;;
22567;SDS011;11450;50.818;4.382;2022-11-15T16:16:35;3.47;;;1.98;;
22567;SDS011;11450;50.818;4.382;2022-11-15T16:19:01;2.80;;;2.20;;
22567;SDS011;11450;50.818;4.382;2022-11-15T16:21:28;2.15;;;1.88;;
22567;SDS011;11450;50.818;4.382;2022-11-15T16:23:53;2.47;;;1.90;;
22567;SDS011;11450;50.818;4.382;2022-11-15T16:28:53;3.15;;;2.33;;
22567;SDS011;11450;50.818;4.382;2022-11-15T16:31:19;2.03;;;1.75;;
22567;SDS011;11450;50.818;4.382;2022-11-15T16:33:48;3.78;;;2.10;;
22567;SDS011;11450;50.818;4.382;2022-11-15T16:36:18;3.95;;;1.80;;
22567;SDS011;11450;50.818;4.382;2022-11-15T16:38:46;3.15;;;2.10;;
22567;SDS011;11450;50.818;4.382;2022-11-15T16:41:12;4.40;;;2.30;;
22567;SDS011;11450;50.818;4.382;2022-11-15T16:43:37;3.08;;;2.03;;
22567;SDS011;11450;50.818;4.382;2022-11-15T16:46:06;2.42;;;2.10;;
22567;SDS011;11450;50.818;4.382;2022-11-15T16:48:37;4.63;;;2.03;;
22567;SDS011;11450;50.818;4.382;2022-11-15T16:51:04;2.70;;;2.17;;
22567;SDS011;11450;50.818;4.382;2022-11-15T16:53:30;3.00;;;2.10;;
22567;SDS011;11450;50.818;4.382;2022-11-15T16:55:56;3.40;;;2.00;;
22567;SDS011;11450;50.818;4.382;2022-11-15T16:58:21;2.30;;;1.98;;
22567;SDS011;11450;50.818;4.382;2022-11-15T17:00:50;6.32;;;4.97;;
22567;SDS011;11450;50.818;4.382;2022-11-15T17:03:17;4.65;;;3.55;;
22567;SDS011;11450;50.818;4.382;2022-11-15T17:05:43;3.58;;;2.53;;
22567;SDS011;11450;50.818;4.382;2022-11-15T17:08:09;3.22;;;2.92;;
22567;SDS011;11450;50.818;4.382;2022-11-15T17:10:37;3.13;;;2.83;;
22567;SDS011;11450;50.818;4.382;2022-11-15T17:13:05;5.00;;;3.95;;
22567;SDS011;11450;50.818;4.382;2022-11-15T17:15:31;5.55;;;3.40;;
22567;SDS011;11450;50.818;4.382;2022-11-15T17:17:57;4.13;;;3.00;;
22567;SDS011;11450;50.818;4.382;2022-11-15T17:20:24;4.18;;;2.85;;
22567;SDS011;11450;50.818;4.382;2022-11-15T17:22:51;4.32;;;3.22;;